Time;durP1;ratioP1;P1;durP2;ratioP2;P2;SDS_P1;SDS_P2;PMS_P1;PMS_P2;Temp;Humidity;BMP_temperature;BMP_pressure;BME280_temperature;BME280_humidity;BME280_pressure;Samples;Min_cycle;Max_cycle;Signal;HPM_P1;HPM_P2
2021/04/30 00:01:27;;;;;;;11.80;5.93;;;9.30;99.90;;;;;;4190509;28;20037;-69
2021/04/30 00:03:28;;;;;;;11.20;6.25;;;9.30;99.90;;;;;;4191909;28;20036;-69
2021/04/30 00:05:29;;;;;;;8.82;5.22;;;9.30;99.90;;;;;;4191660;28;20040;-69
2021/04/30 00:07:30;;;;;;;13.13;6.10;;;9.30;99.90;;;;;;4190949;28;20718;-69
2021/04/30 00:09:32;;;;;;;11.80;5.40;;;9.30;99.90;;;;;;4183400;28;20106;-69
2021/04/30 00:11:32;;;;;;;10.70;6.07;;;9.30;99.90;;;;;;4192107;28;20036;-69
2021/04/30 00:13:37;;;;;;;9.45;5.75;;;9.30;99.90;;;;;;4192103;28;20075;-69
2021/04/30 00:15:39;;;;;;;8.35;5.93;;;9.30;99.90;;;;;;4191648;28;20039;-69
2021/04/30 00:17:39;;;;;;;13.05;6.03;;;9.30;99.90;;;;;;4192182;28;20090;-69
2021/04/30 00:19:40;;;;;;;11.32;6.30;;;9.30;99.90;;;;;;4191800;28;20037;-69
2021/04/30 00:21:40;;;;;;;11.32;6.13;;;9.30;99.90;;;;;;4189891;28;20042;-69
2021/04/30 00:23:41;;;;;;;10.57;5.80;;;9.30;99.90;;;;;;4192068;28;20090;-69
2021/04/30 00:25:42;;;;;;;12.00;6.13;;;9.30;99.90;;;;;;4190210;28;20047;-69
2021/04/30 00:27:42;;;;;;;14.93;6.57;;;9.30;99.90;;;;;;4190577;28;20040;-69
2021/04/30 00:29:43;;;;;;;11.05;5.45;;;9.40;99.90;;;;;;4190398;28;20044;-69
2021/04/30 00:31:43;;;;;;;11.50;6.05;;;9.30;99.90;;;;;;4192044;28;20380;-69
2021/04/30 00:33:44;;;;;;;12.45;6.20;;;9.30;99.90;;;;;;4191752;28;20474;-69
2021/04/30 00:35:45;;;;;;;18.02;7.60;;;9.20;99.90;;;;;;4189895;28;20025;-69
2021/04/30 00:37:45;;;;;;;16.23;7.15;;;9.20;99.90;;;;;;4192097;28;20055;-69
2021/04/30 00:39:46;;;;;;;19.30;7.78;;;9.20;99.90;;;;;;4187765;28;20155;-69
2021/04/30 00:41:46;;;;;;;13.15;6.95;;;9.10;99.90;;;;;;4191838;28;20032;-69
2021/04/30 00:43:47;;;;;;;12.85;6.50;;;9.10;99.90;;;;;;4195096;28;20115;-69
2021/04/30 00:45:52;;;;;;;14.95;6.60;;;9.10;99.90;;;;;;4195128;28;20044;-69
2021/04/30 00:47:54;;;;;;;17.33;7.63;;;9.10;99.90;;;;;;4178487;28;20484;-69
2021/04/30 00:49:54;;;;;;;13.48;7.53;;;9.10;99.90;;;;;;4194335;28;20044;-69
2021/04/30 00:51:55;;;;;;;13.52;7.32;;;9.10;99.90;;;;;;4193687;28;20416;-69
2021/04/30 00:53:56;;;;;;;21.45;8.38;;;9.10;99.90;;;;;;4194350;28;20483;-69
2021/04/30 00:55:56;;;;;;;17.80;8.00;;;9.10;99.90;;;;;;4194659;28;20033;-69
2021/04/30 00:57:59;;;;;;;14.95;7.35;;;9.10;99.90;;;;;;4195082;28;20028;-69
2021/04/30 01:00:00;;;;;;;18.08;7.93;;;9.10;99.90;;;;;;4193300;28;20516;-69
2021/04/30 01:02:00;;;;;;;16.25;7.55;;;9.10;99.90;;;;;;4194346;28;20128;-69
2021/04/30 01:04:02;;;;;;;22.33;8.60;;;9.10;99.90;;;;;;4194492;28;20361;-69
2021/04/30 01:06:03;;;;;;;14.13;8.25;;;9.10;99.90;;;;;;4193119;28;20040;-69
2021/04/30 01:08:05;;;;;;;15.13;8.40;;;9.10;99.90;;;;;;4195085;28;20663;-69
2021/04/30 01:10:06;;;;;;;15.77;7.95;;;9.10;99.90;;;;;;4193130;28;20078;-69
2021/04/30 01:12:09;;;;;;;15.00;7.35;;;9.10;99.90;;;;;;4193483;28;20400;-69
2021/04/30 01:14:10;;;;;;;15.25;7.40;;;9.20;99.90;;;;;;4194819;28;20036;-69
2021/04/30 01:16:10;;;;;;;14.40;8.05;;;9.20;99.90;;;;;;4194407;28;20402;-69
2021/04/30 01:18:11;;;;;;;13.25;7.82;;;9.20;99.90;;;;;;4176604;28;20044;-69
2021/04/30 01:20:14;;;;;;;14.20;7.80;;;9.20;99.90;;;;;;4194345;28;20039;-69
2021/04/30 01:22:31;;;;;;;13.13;7.70;;;9.20;99.90;;;;;;4193158;28;20027;-69
2021/04/30 01:24:32;;;;;;;14.82;7.60;;;9.30;99.90;;;;;;4192193;28;20123;-69
2021/04/30 01:26:32;;;;;;;16.50;8.10;;;9.30;99.90;;;;;;4195024;28;20041;-69
2021/04/30 01:28:33;;;;;;;12.35;7.15;;;9.20;99.90;;;;;;4194482;28;20063;-69
2021/04/30 01:30:39;;;;;;;21.70;7.72;;;9.30;99.90;;;;;;4192754;28;20155;-69
2021/04/30 01:32:39;;;;;;;11.75;6.75;;;9.30;99.90;;;;;;4194356;28;20035;-69
2021/04/30 01:34:40;;;;;;;12.27;7.15;;;9.30;99.90;;;;;;4192471;28;20697;-69
2021/04/30 01:36:41;;;;;;;14.95;7.93;;;9.30;99.90;;;;;;4194696;28;20086;-69
2021/04/30 01:38:42;;;;;;;10.95;6.50;;;9.20;99.90;;;;;;4187750;28;20103;-69
2021/04/30 01:40:43;;;;;;;11.88;6.13;;;9.20;99.90;;;;;;4193048;28;20048;-69
2021/04/30 01:43:05;;;;;;;9.77;6.47;;;9.20;99.90;;;;;;4194400;28;20043;-69
2021/04/30 01:45:07;;;;;;;14.10;6.75;;;9.20;99.90;;;;;;4190520;28;20037;-69
2021/04/30 01:47:07;;;;;;;11.52;7.43;;;9.20;99.90;;;;;;4194225;28;20039;-69
2021/04/30 01:49:09;;;;;;;13.93;7.43;;;9.20;99.90;;;;;;4194584;28;20041;-69
2021/04/30 01:51:10;;;;;;;16.50;7.33;;;9.20;99.90;;;;;;4194279;28;20040;-69
2021/04/30 01:53:11;;;;;;;10.73;7.20;;;9.20;99.90;;;;;;4193490;28;20061;-69
2021/04/30 01:55:13;;;;;;;14.80;6.55;;;9.20;99.90;;;;;;4183068;28;20071;-69
2021/04/30 01:57:13;;;;;;;10.50;6.30;;;9.20;99.90;;;;;;4194303;28;20032;-69
2021/04/30 01:59:14;;;;;;;14.65;7.38;;;9.10;99.90;;;;;;4193911;28;20040;-69
2021/04/30 02:01:15;;;;;;;14.45;7.07;;;9.20;99.90;;;;;;4194024;28;20116;-69
2021/04/30 02:03:16;;;;;;;12.30;6.57;;;9.10;99.90;;;;;;4192460;28;20032;-69
2021/04/30 02:05:17;;;;;;;14.27;7.28;;;9.10;99.90;;;;;;4193766;28;20039;-69
2021/04/30 02:07:18;;;;;;;13.75;7.63;;;9.10;99.90;;;;;;4175943;28;20037;-69
2021/04/30 02:09:18;;;;;;;12.80;6.85;;;9.10;99.90;;;;;;4190341;28;20599;-69
2021/04/30 02:11:19;;;;;;;11.68;6.15;;;9.10;99.90;;;;;;4193383;28;20036;-69
2021/04/30 02:13:21;;;;;;;13.23;6.97;;;9.10;99.90;;;;;;4193919;28;20039;-69
2021/04/30 02:15:25;;;;;;;13.75;7.45;;;9.10;99.90;;;;;;4192094;28;20037;-69
2021/04/30 02:17:30;;;;;;;12.30;6.82;;;9.00;99.90;;;;;;4193498;28;20119;-69
2021/04/30 02:19:30;;;;;;;12.65;6.70;;;9.00;99.90;;;;;;4193748;28;20047;-69
2021/04/30 02:21:31;;;;;;;13.57;6.65;;;9.10;99.90;;;;;;4193284;28;20040;-69
2021/04/30 02:23:31;;;;;;;11.85;6.40;;;9.00;99.90;;;;;;4193156;28;20036;-69
2021/04/30 02:25:32;;;;;;;9.75;6.10;;;9.00;99.90;;;;;;4193849;28;20033;-69
2021/04/30 02:27:34;;;;;;;10.45;6.10;;;9.00;99.90;;;;;;4192235;28;20040;-69
2021/04/30 02:29:34;;;;;;;13.88;6.18;;;9.00;99.90;;;;;;4191858;28;20372;-69
2021/04/30 02:31:35;;;;;;;12.15;6.30;;;9.00;99.90;;;;;;4193613;28;20029;-69
2021/04/30 02:33:35;;;;;;;13.02;6.47;;;8.90;99.90;;;;;;4192087;28;20138;-69
2021/04/30 02:35:42;;;;;;;11.82;6.10;;;8.90;99.90;;;;;;4190601;28;20039;-69
2021/04/30 02:37:44;;;;;;;13.05;7.07;;;8.90;99.90;;;;;;4191800;28;20431;-69
2021/04/30 02:39:46;;;;;;;11.65;6.53;;;8.90;99.90;;;;;;4183864;28;20124;-69
2021/04/30 02:41:47;;;;;;;12.80;7.18;;;8.80;99.90;;;;;;4193122;28;20354;-69
2021/04/30 02:43:47;;;;;;;12.98;7.15;;;8.90;99.90;;;;;;4193358;28;20035;-69
2021/04/30 02:45:51;;;;;;;12.98;6.10;;;8.90;99.90;;;;;;4193176;28;20032;-69
2021/04/30 02:47:54;;;;;;;13.55;7.18;;;8.90;99.90;;;;;;4174811;28;20044;-69
2021/04/30 02:49:55;;;;;;;;;;;8.80;99.90;;;;;;4193414;28;20033;-69
2021/04/30 02:51:56;;;;;;;11.02;6.15;;;8.80;99.90;;;;;;4193320;28;19923;-69
2021/04/30 02:53:56;;;;;;;13.18;7.10;;;8.80;99.90;;;;;;4193165;28;20025;-69
2021/04/30 02:55:57;;;;;;;12.95;6.75;;;8.80;99.90;;;;;;4193262;28;20056;-69
2021/04/30 02:58:00;;;;;;;12.13;7.50;;;8.90;99.90;;;;;;4188149;28;20124;-69
2021/04/30 03:00:02;;;;;;;13.40;6.82;;;8.80;99.90;;;;;;4192296;28;20036;-69
2021/04/30 03:02:02;;;;;;;11.00;6.55;;;8.80;99.90;;;;;;4188349;28;20067;-69
2021/04/30 03:04:03;;;;;;;14.15;7.68;;;8.80;99.90;;;;;;4193146;28;20029;-69
2021/04/30 03:06:04;;;;;;;13.93;7.38;;;8.80;99.90;;;;;;4190656;28;20032;-69
2021/04/30 03:08:05;;;;;;;12.95;7.47;;;8.80;99.90;;;;;;4193021;28;20044;-69
2021/04/30 03:10:06;;;;;;;11.00;6.65;;;8.70;99.90;;;;;;4193310;28;20029;-69
2021/04/30 03:12:07;;;;;;;10.93;6.57;;;8.80;99.90;;;;;;4192385;28;20048;-69
2021/04/30 03:14:08;;;;;;;11.07;6.95;;;8.80;99.90;;;;;;4191242;28;20036;-69
2021/04/30 03:16:09;;;;;;;12.52;6.38;;;8.80;99.90;;;;;;4192580;28;20388;-69
2021/04/30 03:18:10;;;;;;;16.45;8.02;;;8.80;99.90;;;;;;4192652;28;20124;-69
2021/04/30 03:20:11;;;;;;;10.88;7.20;;;8.80;99.90;;;;;;4192632;28;20058;-69
2021/04/30 03:22:12;;;;;;;13.07;7.32;;;8.80;99.90;;;;;;4191349;28;20028;-69
2021/04/30 03:24:12;;;;;;;13.38;7.60;;;8.80;99.90;;;;;;4192575;28;20133;-69
2021/04/30 03:26:13;;;;;;;10.50;6.88;;;8.80;99.90;;;;;;4192716;28;20045;-69
2021/04/30 03:28:14;;;;;;;17.02;7.55;;;8.80;99.90;;;;;;4192172;28;20409;-69
2021/04/30 03:30:15;;;;;;;11.70;7.25;;;8.80;99.90;;;;;;4192641;28;20149;-69
2021/04/30 03:32:15;;;;;;;12.75;7.43;;;8.80;99.90;;;;;;4192727;28;20170;-69
2021/04/30 03:34:16;;;;;;;12.35;7.88;;;8.80;99.90;;;;;;4192847;28;20568;-69
2021/04/30 03:36:17;;;;;;;15.80;7.93;;;8.70;99.90;;;;;;4190573;28;20134;-69
2021/04/30 03:38:17;;;;;;;10.75;7.03;;;8.80;99.90;;;;;;4191804;28;20488;-69
2021/04/30 03:40:18;;;;;;;11.05;7.65;;;8.80;99.90;;;;;;4190758;28;20424;-69
2021/04/30 03:42:18;;;;;;;11.18;7.60;;;8.80;99.90;;;;;;4192274;28;20411;-69
2021/04/30 03:44:19;;;;;;;11.70;7.80;;;8.80;99.90;;;;;;4192655;28;20047;-69
2021/04/30 03:46:20;;;;;;;13.05;8.20;;;8.80;99.90;;;;;;4192546;28;20039;-69
2021/04/30 03:48:22;;;;;;;10.50;7.22;;;8.80;99.90;;;;;;4191712;28;20032;-69
2021/04/30 03:50:22;;;;;;;13.63;8.45;;;8.80;99.90;;;;;;4192184;28;20021;-69
2021/04/30 03:52:25;;;;;;;13.02;7.82;;;8.80;99.90;;;;;;4192121;28;20127;-69
2021/04/30 03:54:26;;;;;;;13.35;8.07;;;8.80;99.90;;;;;;4191208;28;20487;-69
2021/04/30 03:56:26;;;;;;;13.05;7.78;;;8.80;99.90;;;;;;4192328;28;20032;-69
2021/04/30 03:58:27;;;;;;;13.95;8.15;;;8.80;99.90;;;;;;4191711;28;20036;-69
2021/04/30 04:00:28;;;;;;;9.45;7.20;;;8.80;99.90;;;;;;4191988;28;20040;-69
2021/04/30 04:02:29;;;;;;;13.20;8.30;;;8.80;99.90;;;;;;4191529;28;20078;-69
2021/04/30 04:04:29;;;;;;;15.50;8.48;;;8.80;99.90;;;;;;4191798;28;20028;-69
2021/04/30 04:06:30;;;;;;;12.82;7.93;;;8.80;99.90;;;;;;4192025;28;20024;-69
2021/04/30 04:08:31;;;;;;;8.93;6.97;;;8.80;99.90;;;;;;4190153;28;20036;-69
2021/04/30 04:10:32;;;;;;;12.40;7.68;;;8.80;99.90;;;;;;4192330;28;20035;-69
2021/04/30 04:12:33;;;;;;;15.00;9.05;;;8.80;99.90;;;;;;4190048;28;20052;-69
2021/04/30 04:14:33;;;;;;;13.70;8.35;;;8.90;99.90;;;;;;4192108;28;20430;-69
2021/04/30 04:16:34;;;;;;;15.70;9.65;;;8.80;99.90;;;;;;4192178;28;20388;-69
2021/04/30 04:18:35;;;;;;;15.30;8.45;;;8.80;99.90;;;;;;4191081;28;20043;-69
2021/04/30 04:20:36;;;;;;;14.38;8.52;;;8.80;99.90;;;;;;4190121;28;20399;-69
2021/04/30 04:22:37;;;;;;;14.88;9.05;;;8.80;99.90;;;;;;4192279;28;20020;-69
2021/04/30 04:24:38;;;;;;;15.63;9.15;;;8.80;99.90;;;;;;4189572;28;20024;-69
2021/04/30 04:26:38;;;;;;;16.17;9.32;;;8.70;99.90;;;;;;4191921;28;20032;-69
2021/04/30 04:28:39;;;;;;;16.40;9.15;;;8.80;99.90;;;;;;4191561;28;20085;-69
2021/04/30 04:30:40;;;;;;;13.77;7.95;;;8.80;99.90;;;;;;4190225;28;20028;-69
2021/04/30 04:32:40;;;;;;;11.18;7.40;;;8.80;99.90;;;;;;4192048;28;20150;-69
2021/04/30 04:34:41;;;;;;;14.68;8.63;;;8.80;99.90;;;;;;4191532;28;20058;-69
2021/04/30 04:36:42;;;;;;;14.65;8.60;;;8.80;99.90;;;;;;4191970;28;20029;-69
2021/04/30 04:38:42;;;;;;;15.68;8.13;;;8.90;99.90;;;;;;4184495;28;20044;-69
2021/04/30 04:40:43;;;;;;;16.48;9.30;;;8.90;99.90;;;;;;4189622;28;20033;-69
2021/04/30 04:42:44;;;;;;;18.00;9.75;;;8.90;99.90;;;;;;4189968;28;20021;-69
2021/04/30 04:44:45;;;;;;;11.52;8.43;;;8.90;99.90;;;;;;4191779;28;20025;-69
2021/04/30 04:46:46;;;;;;;13.60;8.23;;;8.90;99.90;;;;;;4192208;28;20033;-69
2021/04/30 04:48:46;;;;;;;16.38;8.38;;;8.90;99.90;;;;;;4191084;28;20040;-69
2021/04/30 04:50:47;;;;;;;14.40;8.63;;;8.90;99.90;;;;;;4190540;28;20021;-69
2021/04/30 04:52:47;;;;;;;17.00;9.70;;;8.90;99.90;;;;;;4190366;28;20032;-69
2021/04/30 04:54:48;;;;;;;15.55;9.25;;;8.90;99.90;;;;;;4190115;28;20079;-69
2021/04/30 04:56:49;;;;;;;16.45;9.23;;;9.00;99.90;;;;;;4191941;28;20037;-69
2021/04/30 04:58:50;;;;;;;19.25;8.80;;;9.00;99.90;;;;;;4191915;28;20029;-69
2021/04/30 05:00:50;;;;;;;11.32;7.85;;;8.90;99.90;;;;;;4189964;28;20048;-69
2021/04/30 05:02:51;;;;;;;15.85;8.70;;;9.00;99.90;;;;;;4189521;28;20408;-69
2021/04/30 05:04:51;;;;;;;12.65;8.50;;;9.00;99.90;;;;;;4191646;28;20048;-69
2021/04/30 05:06:52;;;;;;;13.73;8.23;;;9.00;99.90;;;;;;4191687;28;20696;-69
2021/04/30 05:08:53;;;;;;;14.65;9.27;;;9.00;99.90;;;;;;4183589;28;20122;-69
2021/04/30 05:10:53;;;;;;;14.90;9.07;;;9.00;99.90;;;;;;4192040;28;20748;-69
2021/04/30 05:12:54;;;;;;;16.90;8.55;;;9.00;99.90;;;;;;4189420;28;20044;-69
2021/04/30 05:14:55;;;;;;;13.75;8.52;;;9.00;99.90;;;;;;4191723;28;20036;-69
2021/04/30 05:16:55;;;;;;;14.95;8.48;;;9.00;99.90;;;;;;4190222;28;20503;-69
2021/04/30 05:18:56;;;;;;;12.40;8.55;;;9.00;99.90;;;;;;4191523;28;20385;-69
2021/04/30 05:20:57;;;;;;;15.55;9.18;;;9.10;99.90;;;;;;4191639;28;20071;-69
2021/04/30 05:23:00;;;;;;;14.82;9.38;;;9.10;99.90;;;;;;4180673;28;20041;-69
2021/04/30 05:25:01;;;;;;;17.80;9.40;;;9.10;99.90;;;;;;4188955;28;20045;-69
2021/04/30 05:27:06;;;;;;;13.93;9.05;;;9.10;99.90;;;;;;4191214;28;20052;-69
2021/04/30 05:29:07;;;;;;;16.02;9.45;;;9.10;99.90;;;;;;4190516;28;20041;-69
2021/04/30 05:31:08;;;;;;;14.82;9.35;;;9.00;99.90;;;;;;4193760;28;20120;-69
2021/04/30 05:33:08;;;;;;;13.75;8.25;;;9.10;99.90;;;;;;4193892;28;20049;-69
2021/04/30 05:35:11;;;;;;;14.98;9.57;;;9.10;99.90;;;;;;4193532;28;20041;-69
2021/04/30 05:37:12;;;;;;;13.52;8.95;;;9.10;99.90;;;;;;4186955;28;20041;-69
2021/04/30 05:39:13;;;;;;;20.20;10.60;;;9.10;99.90;;;;;;4194353;28;20538;-69
2021/04/30 05:41:13;;;;;;;13.05;8.80;;;9.10;99.90;;;;;;4192536;28;20132;-69
2021/04/30 05:43:15;;;;;;;14.10;9.52;;;9.10;99.90;;;;;;4194135;28;20093;-69
2021/04/30 05:45:16;;;;;;;16.35;9.05;;;9.10;99.90;;;;;;4193838;28;20067;-69
2021/04/30 05:47:17;;;;;;;16.17;9.30;;;9.10;99.90;;;;;;4192528;28;20036;-69
2021/04/30 05:49:18;;;;;;;12.85;8.48;;;9.10;99.90;;;;;;4193884;28;20051;-69
2021/04/30 05:51:19;;;;;;;14.37;8.13;;;9.10;99.90;;;;;;4192774;28;20029;-69
2021/04/30 05:53:22;;;;;;;13.55;8.70;;;9.10;99.90;;;;;;4192612;28;20060;-69
2021/04/30 05:55:23;;;;;;;15.23;10.50;;;9.10;99.90;;;;;;4193622;28;20078;-69
2021/04/30 05:57:24;;;;;;;14.77;9.27;;;9.20;99.90;;;;;;4194087;28;20032;-69
2021/04/30 05:59:24;;;;;;;14.10;9.15;;;9.10;99.90;;;;;;4192511;28;20044;-69
2021/04/30 06:01:25;;;;;;;14.48;9.07;;;9.10;99.90;;;;;;4193969;28;20033;-69
2021/04/30 06:03:25;;;;;;;15.45;9.13;;;9.10;99.90;;;;;;4192441;28;20747;-69
2021/04/30 06:05:26;;;;;;;16.15;9.48;;;9.10;99.90;;;;;;4191899;28;20083;-69
2021/04/30 06:07:27;;;;;;;15.23;9.95;;;9.10;99.90;;;;;;4193530;28;20048;-69
2021/04/30 06:09:27;;;;;;;15.35;9.73;;;9.20;99.90;;;;;;4194645;28;20032;-69
2021/04/30 06:11:28;;;;;;;15.05;10.32;;;9.10;99.90;;;;;;4194313;28;20380;-69
2021/04/30 06:13:30;;;;;;;14.48;10.05;;;9.10;99.90;;;;;;4193913;28;20024;-69
2021/04/30 06:15:31;;;;;;;14.23;10.00;;;9.10;99.90;;;;;;4192100;28;20082;-69
2021/04/30 06:17:31;;;;;;;15.00;9.77;;;9.00;99.90;;;;;;4193142;28;20555;-69
2021/04/30 06:19:32;;;;;;;17.77;10.88;;;9.10;99.90;;;;;;4193717;28;20032;-69
2021/04/30 06:21:33;;;;;;;14.40;9.57;;;9.10;99.90;;;;;;4190469;28;20785;-70
2021/04/30 06:23:34;;;;;;;20.65;11.38;;;9.10;99.90;;;;;;4187323;28;20044;-70
2021/04/30 06:25:35;;;;;;;16.48;10.23;;;9.10;99.90;;;;;;4196441;28;20059;-70
2021/04/30 06:27:37;;;;;;;15.18;10.20;;;9.10;99.90;;;;;;4184871;28;20072;-70
2021/04/30 06:29:38;;;;;;;14.75;9.75;;;9.10;99.90;;;;;;4190580;28;20033;-69
2021/04/30 06:31:39;;;;;;;16.83;10.52;;;9.10;99.90;;;;;;4192629;28;20690;-70
2021/04/30 06:33:39;;;;;;;17.45;10.75;;;9.10;99.90;;;;;;4184752;28;20059;-70
2021/04/30 06:35:40;;;;;;;17.15;10.27;;;9.10;99.90;;;;;;4191546;28;20048;-69
2021/04/30 06:37:41;;;;;;;18.40;11.40;;;9.10;99.90;;;;;;4192108;28;20064;-70
2021/04/30 06:39:41;;;;;;;17.45;11.32;;;9.00;99.90;;;;;;4192533;28;20040;-69
2021/04/30 06:41:42;;;;;;;15.60;10.90;;;9.00;99.90;;;;;;4191612;28;20424;-69
2021/04/30 06:43:43;;;;;;;15.43;10.82;;;9.00;99.90;;;;;;4191816;28;20031;-70
2021/04/30 06:45:44;;;;;;;15.35;10.82;;;9.00;99.90;;;;;;4191810;28;20037;-69
2021/04/30 06:47:44;;;;;;;18.85;11.65;;;9.00;99.90;;;;;;4192352;28;20059;-69
2021/04/30 06:49:45;;;;;;;21.50;12.55;;;9.00;99.90;;;;;;4188810;28;20052;-70
2021/04/30 06:51:48;;;;;;;18.73;11.73;;;9.00;99.90;;;;;;4192760;28;20040;-70
2021/04/30 06:53:49;;;;;;;18.55;11.07;;;9.00;99.90;;;;;;4189711;28;20131;-70
2021/04/30 06:55:50;;;;;;;16.98;11.35;;;9.00;99.90;;;;;;4190931;28;20044;-69
2021/04/30 06:57:50;;;;;;;16.45;11.65;;;9.00;99.90;;;;;;4191088;28;20078;-70
2021/04/30 06:59:51;;;;;;;18.38;11.25;;;9.00;99.90;;;;;;4190946;28;20456;-70
2021/04/30 07:01:52;;;;;;;20.20;12.40;;;9.10;99.90;;;;;;4191617;28;20044;-69
2021/04/30 07:03:52;;;;;;;21.00;12.70;;;9.00;99.90;;;;;;4191871;28;20637;-70
2021/04/30 07:05:53;;;;;;;16.08;11.82;;;9.10;99.90;;;;;;4191940;28;20420;-70
2021/04/30 07:07:56;;;;;;;23.15;13.90;;;9.00;99.90;;;;;;4188440;28;20492;-69
2021/04/30 07:09:57;;;;;;;18.73;12.65;;;9.00;99.90;;;;;;4191648;28;20107;-69
2021/04/30 07:11:59;;;;;;;29.50;14.25;;;9.00;99.90;;;;;;4192380;28;20036;-70
2021/04/30 07:14:00;;;;;;;24.00;13.35;;;9.00;99.90;;;;;;4190976;28;20045;-69
2021/04/30 07:16:05;;;;;;;20.27;13.20;;;9.00;99.90;;;;;;4189356;28;20035;-70
2021/04/30 07:18:05;;;;;;;22.75;12.88;;;9.00;99.90;;;;;;4191570;28;20033;-70
2021/04/30 07:20:08;;;;;;;20.15;12.98;;;9.00;99.90;;;;;;4190919;28;20206;-69
2021/04/30 07:22:11;;;;;;;21.88;13.95;;;9.00;99.90;;;;;;4191243;28;20706;-69
2021/04/30 07:24:11;;;;;;;19.55;13.13;;;9.00;99.90;;;;;;4189049;28;20043;-70
2021/04/30 07:26:12;;;;;;;21.27;13.70;;;9.10;99.90;;;;;;4192420;28;20025;-70
2021/04/30 07:28:13;;;;;;;24.48;15.13;;;9.10;99.90;;;;;;4190167;28;20025;-70
2021/04/30 07:30:14;;;;;;;24.23;14.60;;;9.10;99.90;;;;;;4190060;28;20081;-70
2021/04/30 07:32:14;;;;;;;23.45;15.30;;;9.00;99.90;;;;;;4191434;28;20041;-69
2021/04/30 07:34:15;;;;;;;23.02;14.18;;;9.00;99.90;;;;;;4190635;28;20158;-70
2021/04/30 07:36:16;;;;;;;30.75;14.98;;;9.10;99.90;;;;;;4187043;28;20064;-70
2021/04/30 07:38:17;;;;;;;21.98;14.65;;;9.10;99.90;;;;;;4194238;28;20498;-69
2021/04/30 07:40:18;;;;;;;22.58;15.00;;;9.10;99.90;;;;;;4190606;28;20063;-69
2021/04/30 07:42:19;;;;;;;25.30;14.57;;;9.00;99.90;;;;;;4188802;28;20115;-70
2021/04/30 07:44:19;;;;;;;23.58;16.23;;;9.10;99.90;;;;;;4190070;28;20029;-70
2021/04/30 07:46:20;;;;;;;26.23;16.50;;;9.10;99.90;;;;;;4189074;28;20060;-70
2021/04/30 07:48:20;;;;;;;25.90;15.45;;;9.10;99.90;;;;;;4189758;28;20024;-70
2021/04/30 07:50:21;;;;;;;23.60;15.43;;;9.00;99.90;;;;;;4188869;28;20044;-70
2021/04/30 07:52:23;;;;;;;21.75;14.93;;;9.00;99.90;;;;;;4187982;28;20048;-70
2021/04/30 07:54:23;;;;;;;25.13;15.13;;;9.00;99.90;;;;;;4189677;28;20025;-70
2021/04/30 07:56:24;;;;;;;25.63;15.75;;;9.00;99.90;;;;;;4190493;28;20468;-70
2021/04/30 07:58:26;;;;;;;23.73;15.27;;;9.10;99.90;;;;;;4189898;28;20537;-70
2021/04/30 08:00:27;;;;;;;31.80;16.92;;;9.10;99.90;;;;;;4188469;28;20059;-69
2021/04/30 08:02:28;;;;;;;34.15;17.23;;;9.10;99.90;;;;;;4191049;28;20052;-69
2021/04/30 08:04:29;;;;;;;23.27;15.43;;;9.10;99.90;;;;;;4190927;28;20039;-70
2021/04/30 08:06:30;;;;;;;20.88;15.02;;;9.10;99.90;;;;;;4189920;28;20139;-70
2021/04/30 08:08:30;;;;;;;25.13;14.95;;;9.10;99.90;;;;;;4189223;28;20139;-69
2021/04/30 08:10:32;;;;;;;28.33;15.27;;;9.10;99.90;;;;;;4189867;28;20059;-70
2021/04/30 08:12:33;;;;;;;23.75;15.80;;;9.10;99.90;;;;;;4189760;28;20025;-70
2021/04/30 08:14:34;;;;;;;23.23;15.18;;;9.10;99.90;;;;;;4190929;28;20025;-70
2021/04/30 08:16:36;;;;;;;23.67;15.70;;;9.10;99.90;;;;;;4189934;28;20040;-70
2021/04/30 08:18:37;;;;;;;26.65;15.75;;;9.10;99.90;;;;;;4188112;28;20041;-70
2021/04/30 08:20:37;;;;;;;30.67;16.15;;;9.20;99.90;;;;;;4190495;28;20037;-70
2021/04/30 08:22:39;;;;;;;24.95;15.18;;;9.20;99.90;;;;;;4188213;28;20513;-70
2021/04/30 08:24:39;;;;;;;29.30;16.80;;;9.20;99.90;;;;;;4189455;28;20029;-70
2021/04/30 08:26:40;;;;;;;23.17;15.13;;;9.20;99.90;;;;;;4188252;28;20474;-70
2021/04/30 08:28:41;;;;;;;27.20;16.52;;;9.30;99.90;;;;;;4191160;28;20055;-70
2021/04/30 08:30:41;;;;;;;25.35;15.60;;;9.20;99.90;;;;;;4188863;28;20052;-70
2021/04/30 08:32:42;;;;;;;30.77;16.77;;;9.30;99.90;;;;;;4190377;28;20443;-70
2021/04/30 08:34:43;;;;;;;32.03;17.90;;;9.30;99.90;;;;;;4189670;28;20480;-70
2021/04/30 08:36:44;;;;;;;25.50;15.77;;;9.30;99.90;;;;;;4189031;28;20112;-70
2021/04/30 08:38:44;;;;;;;33.53;17.65;;;9.30;99.90;;;;;;4188417;28;20408;-70
2021/04/30 08:40:47;;;;;;;30.65;16.20;;;9.30;99.90;;;;;;4190167;28;20033;-70
2021/04/30 08:42:50;;;;;;;32.45;15.98;;;9.40;99.90;;;;;;4190497;28;20495;-70
2021/04/30 08:44:51;;;;;;;25.85;16.33;;;9.40;99.90;;;;;;4188213;28;20074;-70
2021/04/30 08:46:52;;;;;;;23.77;16.27;;;9.40;99.90;;;;;;4190132;28;20515;-69
2021/04/30 08:48:52;;;;;;;31.80;16.45;;;9.40;99.90;;;;;;4190132;28;20064;-70
2021/04/30 08:50:54;;;;;;;29.20;17.20;;;9.40;99.90;;;;;;4190221;28;20139;-70
2021/04/30 08:52:55;;;;;;;25.15;16.52;;;9.40;99.90;;;;;;4190728;28;20028;-70
2021/04/30 08:54:59;;;;;;;27.52;15.27;;;9.40;99.90;;;;;;4187224;28;20447;-70
2021/04/30 08:57:04;;;;;;;27.67;16.80;;;9.40;99.90;;;;;;4187028;28;20076;-70
2021/04/30 08:59:06;;;;;;;27.45;16.83;;;9.30;99.90;;;;;;4181476;28;20033;-70
2021/04/30 09:01:06;;;;;;;28.92;16.08;;;9.30;99.90;;;;;;4187339;28;20042;-70
2021/04/30 09:03:11;;;;;;;28.15;16.75;;;9.30;99.90;;;;;;4187132;28;20140;-70
2021/04/30 09:05:13;;;;;;;29.58;16.83;;;9.30;99.90;;;;;;4175553;28;20545;-70
2021/04/30 09:07:16;;;;;;;24.98;16.08;;;9.20;99.90;;;;;;4193249;28;20509;-70
2021/04/30 09:09:18;;;;;;;28.02;17.92;;;9.30;99.90;;;;;;4193221;28;20040;-70
2021/04/30 09:11:35;;;;;;;27.27;16.58;;;9.30;99.90;;;;;;4194013;28;20045;-70
2021/04/30 09:13:40;;;;;;;29.05;15.80;;;9.30;99.90;;;;;;4193583;28;20162;-70
2021/04/30 09:15:43;;;;;;;30.00;18.23;;;9.30;99.90;;;;;;4189992;28;20040;-70
2021/04/30 09:17:44;;;;;;;;;;;9.30;99.90;;;;;;4193786;28;20032;-70
2021/04/30 09:19:58;;;;;;;27.13;16.35;;;9.30;99.90;;;;;;4191972;28;19995;-70
2021/04/30 09:22:02;;;;;;;33.72;17.52;;;9.40;99.90;;;;;;4195249;28;20044;-70
2021/04/30 09:24:08;;;;;;;30.08;16.92;;;9.40;99.90;;;;;;4192951;28;20029;-70
2021/04/30 09:26:28;;;;;;;29.73;17.15;;;9.40;99.90;;;;;;4190184;28;20036;-70
2021/04/30 09:28:28;;;;;;;35.70;19.30;;;9.40;99.90;;;;;;4190249;28;20052;-70
2021/04/30 09:30:30;;;;;;;29.50;18.95;;;9.40;99.90;;;;;;4193766;28;20028;-70
2021/04/30 09:32:31;;;;;;;28.92;18.00;;;9.40;99.90;;;;;;4191141;28;20028;-70
2021/04/30 09:34:35;;;;;;;27.23;17.27;;;9.40;99.90;;;;;;4192417;28;20028;-70
2021/04/30 09:37:00;;;;;;;31.83;18.13;;;9.40;99.90;;;;;;4193198;28;20450;-70
2021/04/30 09:39:01;;;;;;;28.40;17.60;;;9.40;99.90;;;;;;4191351;28;20047;-70
2021/04/30 09:41:01;;;;;;;24.55;15.80;;;9.40;99.90;;;;;;4191859;28;20071;-71
2021/04/30 09:43:06;;;;;;;29.33;17.45;;;9.40;99.90;;;;;;4193165;28;20052;-70
2021/04/30 09:45:07;;;;;;;27.02;16.77;;;9.40;99.90;;;;;;4190091;28;20040;-70
2021/04/30 09:47:11;;;;;;;32.63;19.15;;;9.40;99.90;;;;;;4191110;28;20426;-70
2021/04/30 09:49:13;;;;;;;29.85;18.83;;;9.40;99.90;;;;;;4191667;28;20404;-70
2021/04/30 09:51:46;;;;;;;27.10;18.20;;;9.40;99.90;;;;;;4193442;28;20039;-70
2021/04/30 09:53:47;;;;;;;37.03;20.93;;;9.40;99.90;;;;;;4191421;28;20040;-70
2021/04/30 09:55:49;;;;;;;28.30;17.65;;;9.50;99.90;;;;;;4190709;28;20063;-70
2021/04/30 09:57:50;;;;;;;31.27;19.52;;;9.40;99.90;;;;;;4191854;28;20365;-70
2021/04/30 10:00:05;;;;;;;32.17;19.75;;;9.50;99.90;;;;;;4191357;28;20024;-70
2021/04/30 10:02:07;;;;;;;35.03;20.85;;;9.50;99.90;;;;;;4190777;28;20506;-70
2021/04/30 10:04:23;;;;;;;35.40;21.05;;;9.50;99.90;;;;;;4192760;28;20036;-70
2021/04/30 10:06:23;;;;;;;31.92;20.27;;;9.50;99.90;;;;;;4192049;28;20664;-70
2021/04/30 10:08:24;;;;;;;41.22;21.83;;;9.40;99.90;;;;;;4193071;28;20033;-70
2021/04/30 10:10:25;;;;;;;30.48;19.75;;;9.40;99.90;;;;;;4191193;28;20040;-70
2021/04/30 10:12:27;;;;;;;40.50;20.38;;;9.40;99.90;;;;;;4192361;28;20036;-70
2021/04/30 10:14:27;;;;;;;31.80;20.70;;;9.40;99.90;;;;;;4174025;28;20590;-70
2021/04/30 10:16:29;;;;;;;28.38;18.63;;;9.30;99.90;;;;;;4190002;28;20149;-70
2021/04/30 10:18:29;;;;;;;36.60;19.35;;;9.40;99.90;;;;;;4190325;28;20032;-70
2021/04/30 10:20:30;;;;;;;36.33;19.67;;;9.40;99.90;;;;;;4189808;28;20041;-70
2021/04/30 10:22:34;;;;;;;36.65;19.45;;;9.40;99.90;;;;;;4190773;28;20036;-70
2021/04/30 10:24:37;;;;;;;26.48;18.33;;;9.40;99.90;;;;;;4190875;28;20056;-70
2021/04/30 10:26:37;;;;;;;33.70;18.92;;;9.40;99.90;;;;;;4190421;28;20540;-70
2021/04/30 10:28:43;;;;;;;29.60;19.98;;;9.40;99.90;;;;;;4192229;28;20082;-70
2021/04/30 10:30:59;;;;;;;30.63;19.13;;;9.40;99.90;;;;;;4190180;28;20051;-70